Time;durP1;ratioP1;P1;durP2;ratioP2;P2;SDS_P1;SDS_P2;PMS_P1;PMS_P2;Temp;Humidity;BMP_temperature;BMP_pressure;BME280_temperature;BME280_humidity;BME280_pressure;Samples;Min_cycle;Max_cycle;Signal;HPM_P1;HPM_P2
2021/01/20 05:01:33;;;;;;;;;;;4.70;99.90;;;;;;5552599;22;19974;-64
2021/01/20 05:04:00;;;;;;;;;;;4.70;99.90;;;;;;5035770;28;20417;-63
2021/01/20 05:06:27;;;;;;;;;;;4.70;99.90;;;;;;5035868;28;20362;-63
2021/01/20 05:08:53;;;;;;;;;;;4.70;99.90;;;;;;5036394;28;19921;-62
2021/01/20 05:11:19;;;;;;;;;;;4.70;99.90;;;;;;5035382;28;19928;-64
2021/01/20 05:13:45;;;;;;;;;;;4.70;99.90;;;;;;5036480;28;20391;-63
2021/01/20 05:16:24;;;;;;;;;;;4.70;99.90;;;;;;5035423;28;19928;-62
2021/01/20 05:18:51;;;;;;;;;;;4.70;99.90;;;;;;5035526;28;20372;-64
2021/01/20 05:21:17;;;;;;;;;;;4.70;99.90;;;;;;5036467;28;20032;-65
2021/01/20 05:23:43;;;;;;;;;;;4.70;99.90;;;;;;5041358;28;19967;-63
2021/01/20 05:26:09;;;;;;;;;;;4.80;99.90;;;;;;5042755;28;19921;-65
2021/01/20 05:28:36;;;;;;;;;;;4.80;99.90;;;;;;5042959;28;19928;-63
2021/01/20 05:31:03;;;;;;;;;;;4.80;99.90;;;;;;5043666;28;19920;-64
2021/01/20 05:33:34;;;;;;;;;;;4.80;99.90;;;;;;5039461;28;19921;-65
2021/01/20 05:36:06;;;;;;;;;;;4.90;99.90;;;;;;5035592;28;19921;-65
2021/01/20 05:38:32;;;;;;;;;;;4.80;99.90;;;;;;5035833;28;19921;-65
2021/01/20 05:41:13;;;;;;;;;;;4.90;99.90;;;;;;5035266;28;19928;-63
2021/01/20 05:43:39;;;;;;;;;;;4.90;99.90;;;;;;5034861;28;20313;-64
2021/01/20 05:46:05;;;;;;;;;;;4.90;99.90;;;;;;5035230;28;19990;-65
2021/01/20 05:48:32;;;;;;;;;;;4.90;99.90;;;;;;5034523;28;20375;-64
2021/01/20 05:50:58;;;;;;;;;;;5.00;99.90;;;;;;5034522;28;19921;-64
2021/01/20 05:53:25;;;;;;;;;;;5.00;99.90;;;;;;5034879;28;19925;-63
2021/01/20 05:56:00;;;;;;;;;;;5.00;99.90;;;;;;5035570;28;19944;-68
2021/01/20 05:58:35;;;;;;;;;;;5.00;99.90;;;;;;5034276;28;19971;-63
2021/01/20 06:01:05;;;;;;;;;;;5.00;99.90;;;;;;5034483;28;19928;-64
2021/01/20 06:03:31;;;;;;;;;;;5.00;99.90;;;;;;5034456;28;19971;-62
2021/01/20 06:05:57;;;;;;;;;;;5.00;99.90;;;;;;5034409;28;19921;-65
2021/01/20 06:08:24;;;;;;;;;;;5.00;99.90;;;;;;5034183;28;19928;-64
2021/01/20 06:10:50;;;;;;;;;;;5.00;99.90;;;;;;5034156;28;19927;-63
2021/01/20 06:13:17;;;;;;;;;;;5.10;99.90;;;;;;5034195;28;19921;-62
2021/01/20 06:15:43;;;;;;;;;;;5.00;99.90;;;;;;5034218;28;19921;-64
2021/01/20 06:18:11;;;;;;;;;;;5.10;99.90;;;;;;5038962;28;19921;-63
2021/01/20 06:20:37;;;;;;;;;;;5.10;99.90;;;;;;5036023;28;19971;-63
2021/01/20 06:23:04;;;;;;;;;;;5.10;99.90;;;;;;5034148;28;19921;-65
2021/01/20 06:25:31;;;;;;;;;;;5.10;99.90;;;;;;5033943;28;19925;-63
2021/01/20 06:28:02;;;;;;;;;;;5.10;99.90;;;;;;5033976;28;19920;-64
2021/01/20 06:30:30;;;;;;;;;;;5.10;99.90;;;;;;5035780;28;19921;-62
2021/01/20 06:32:57;;;;;;;;;;;5.20;99.90;;;;;;5036410;28;19921;-63
2021/01/20 06:35:36;;;;;;;;;;;5.20;99.90;;;;;;5037628;28;19921;-63
2021/01/20 06:38:02;;;;;;;;;;;5.20;99.90;;;;;;5036134;28;19921;-64
2021/01/20 06:40:46;;;;;;;;;;;5.10;99.90;;;;;;5034212;28;19921;-64
2021/01/20 06:43:30;;;;;;;;;;;5.10;99.90;;;;;;5034373;28;19925;-63
2021/01/20 06:46:10;;;;;;;;;;;5.10;99.90;;;;;;5034467;28;19921;-64
2021/01/20 06:48:51;;;;;;;;;;;5.10;99.90;;;;;;5033032;28;20375;-62
2021/01/20 06:51:17;;;;;;;;;;;5.10;99.90;;;;;;5034004;28;19928;-63
2021/01/20 06:53:58;;;;;;;;;;;5.20;99.90;;;;;;5033658;28;19921;-63
2021/01/20 06:56:30;;;;;;;;;;;5.20;99.90;;;;;;5033332;28;20063;-63
2021/01/20 06:59:11;;;;;;;;;;;5.20;99.90;;;;;;5033671;28;20347;-63
2021/01/20 07:01:38;;;;;;;;;;;5.10;99.90;;;;;;5034216;28;19928;-63
2021/01/20 07:04:04;;;;;;;;;;;5.20;99.90;;;;;;5033469;28;19925;-61
2021/01/20 07:06:41;;;;;;;;;;;5.20;99.90;;;;;;5033844;28;20390;-61
2021/01/20 07:09:09;;;;;;;;;;;5.20;99.90;;;;;;5034486;28;19921;-62
2021/01/20 07:12:06;;;;;;;;;;;5.10;99.90;;;;;;5033312;28;19925;-62
2021/01/20 07:14:32;;;;;;;;;;;5.20;99.90;;;;;;5033498;28;19921;-62
2021/01/20 07:16:59;;;;;;;;;;;5.20;99.90;;;;;;5033357;28;19921;-62
2021/01/20 07:19:26;;;;;;;;;;;5.30;99.90;;;;;;5033413;28;19921;-61
2021/01/20 07:21:52;;;;;;;;;;;5.40;99.90;;;;;;5033187;28;20306;-62
2021/01/20 07:24:18;;;;;;;;;;;5.40;99.90;;;;;;5033597;28;19929;-61
2021/01/20 07:26:44;;;;;;;;;;;5.50;99.90;;;;;;5033827;28;20000;-61
2021/01/20 07:29:14;;;;;;;;;;;5.60;99.90;;;;;;5035824;28;19928;-62
2021/01/20 07:31:43;;;;;;;;;;;5.60;99.90;;;;;;5041706;28;20344;-61
2021/01/20 07:34:10;;;;;;;;;;;5.70;99.90;;;;;;5043874;28;19921;-62
2021/01/20 07:36:36;;;;;;;;;;;5.70;99.90;;;;;;5043542;28;19928;-61
2021/01/20 07:39:02;;;;;;;;;;;5.60;99.90;;;;;;5043451;28;19921;-61
2021/01/20 07:41:29;;;;;;;;;;;5.70;99.90;;;;;;5039611;28;20020;-62
2021/01/20 07:44:05;;;;;;;;;;;5.70;99.90;;;;;;5038119;28;19976;-62
2021/01/20 07:46:31;;;;;;;;;;;5.70;99.90;;;;;;5035327;28;20391;-61
2021/01/20 07:49:09;;;;;;;;;;;5.70;99.90;;;;;;5035017;28;20327;-62
2021/01/20 07:51:36;;;;;;;;;;;5.70;99.90;;;;;;5034632;28;20015;-63
2021/01/20 07:54:02;;;;;;;;;;;5.70;99.90;;;;;;5034512;28;19929;-61
2021/01/20 07:56:29;;;;;;;;;;;5.70;99.90;;;;;;5033620;28;20264;-61
2021/01/20 07:58:55;;;;;;;;;;;5.60;99.90;;;;;;5036002;28;20414;-62
2021/01/20 08:01:25;;;;;;;;;;;5.60;99.90;;;;;;5038190;28;20360;-62
2021/01/20 08:03:51;;;;;;;;;;;5.60;99.90;;;;;;5038321;28;19921;-61
2021/01/20 08:06:17;;;;;;;;;;;5.50;99.90;;;;;;5038028;28;19921;-63
2021/01/20 08:08:50;;;;;;;;;;;5.40;99.90;;;;;;5037710;28;19929;-62
2021/01/20 08:11:20;;;;;;;;;;;5.40;99.90;;;;;;5037719;28;19925;-62
2021/01/20 08:13:47;;;;;;;;;;;5.20;99.90;;;;;;5040306;28;19928;-62
2021/01/20 08:16:14;;;;;;;;;;;5.10;99.90;;;;;;5039303;28;19928;-62
2021/01/20 08:18:40;;;;;;;;;;;5.00;99.90;;;;;;5037367;28;20317;-62
2021/01/20 08:21:07;;;;;;;;;;;5.00;99.90;;;;;;5037414;28;19972;-62
2021/01/20 08:23:51;;;;;;;;;;;5.00;99.90;;;;;;5038290;28;19920;-61
2021/01/20 08:26:22;;;;;;;;;;;5.00;99.90;;;;;;5037371;28;19928;-63
2021/01/20 08:29:01;;;;;;;;;;;5.00;99.90;;;;;;5038035;28;19925;-62
2021/01/20 08:31:27;;;;;;;;;;;5.10;99.90;;;;;;5037496;28;19920;-62
2021/01/20 08:34:08;;;;;;;;;;;5.20;99.90;;;;;;5037622;28;19936;-62
2021/01/20 08:36:34;;;;;;;;;;;5.30;99.90;;;;;;5036255;28;20300;-61
2021/01/20 08:39:06;;;;;;;;;;;5.40;99.90;;;;;;5036775;28;19921;-62
2021/01/20 08:41:33;;;;;;;;;;;5.50;99.90;;;;;;5036660;28;20348;-60
2021/01/20 08:44:15;;;;;;;;;;;5.60;99.90;;;;;;5037330;28;19932;-62
2021/01/20 08:46:41;;;;;;;;;;;5.90;99.90;;;;;;5037220;28;19983;-61
2021/01/20 08:49:07;;;;;;;;;;;6.10;99.90;;;;;;5036720;28;20330;-60
2021/01/20 08:51:33;;;;;;;;;;;6.50;99.90;;;;;;5037259;28;19943;-62
2021/01/20 08:54:09;;;;;;;;;;;6.70;99.90;;;;;;5036657;28;19921;-64
2021/01/20 08:56:36;;;;;;;;;;;6.70;99.90;;;;;;5036973;28;19932;-62
2021/01/20 08:59:02;;;;;;;;;;;6.60;99.90;;;;;;5036531;28;19928;-62
2021/01/20 09:01:28;;;;;;;;;;;6.60;99.90;;;;;;5035837;28;19936;-62
2021/01/20 09:03:54;;;;;;;;;;;6.50;99.90;;;;;;5036662;28;19925;-62
2021/01/20 09:06:20;;;;;;;;;;;6.40;99.90;;;;;;5036159;28;19921;-63
2021/01/20 09:08:46;;;;;;;;;;;6.30;99.90;;;;;;5036367;28;19921;-62
2021/01/20 09:11:12;;;;;;;;;;;6.30;99.90;;;;;;5036163;28;19928;-62
2021/01/20 09:13:39;;;;;;;;;;;6.30;99.90;;;;;;5036282;28;19928;-62
2021/01/20 09:16:07;;;;;;;;;;;6.30;99.90;;;;;;5035908;28;19932;-62
2021/01/20 09:18:33;;;;;;;;;;;6.20;99.90;;;;;;5036246;28;19936;-63
2021/01/20 09:21:00;;;;;;;;;;;6.10;99.90;;;;;;5036586;28;19922;-62
2021/01/20 09:23:26;;;;;;;;;;;5.90;99.90;;;;;;5036384;28;19982;-62
2021/01/20 09:25:53;;;;;;;;;;;5.80;99.90;;;;;;5035984;28;20358;-62
2021/01/20 09:28:20;;;;;;;;;;;5.80;99.90;;;;;;5036404;28;19928;-62
2021/01/20 09:30:46;;;;;;;;;;;5.70;99.90;;;;;;5036153;28;19928;-62
2021/01/20 09:33:13;;;;;;;;;;;5.70;99.90;;;;;;5036240;28;20292;-62
2021/01/20 09:35:39;;;;;;;;;;;5.70;99.90;;;;;;5036556;28;19971;-62
2021/01/20 09:38:05;;;;;;;;;;;5.70;99.90;;;;;;5036205;28;19925;-62
2021/01/20 09:40:32;;;;;;;;;;;5.60;99.90;;;;;;5035960;28;19975;-62
2021/01/20 09:42:58;;;;;;;;;;;5.70;99.90;;;;;;5036229;28;19921;-62
2021/01/20 09:45:26;;;;;;;;;;;5.70;99.90;;;;;;5035885;28;19937;-61
2021/01/20 09:47:54;;;;;;;;;;;5.80;99.90;;;;;;5035754;28;19928;-63
2021/01/20 09:50:20;;;;;;;;;;;5.80;99.90;;;;;;5036467;28;19951;-62
2021/01/20 09:52:47;;;;;;;;;;;5.80;99.90;;;;;;5036430;28;19943;-62
2021/01/20 09:55:14;;;;;;;;;;;5.90;99.90;;;;;;5036315;28;19921;-63
2021/01/20 09:57:40;;;;;;;;;;;5.90;99.90;;;;;;5036099;28;19929;-63
2021/01/20 10:00:06;;;;;;;;;;;6.00;99.90;;;;;;5036188;28;19932;-62
2021/01/20 10:02:33;;;;;;;;;;;6.10;99.90;;;;;;5036405;28;19928;-62
2021/01/20 10:04:59;;;;;;;;;;;6.20;99.90;;;;;;5036115;28;19920;-62
2021/01/20 10:07:26;;;;;;;;;;;6.20;99.90;;;;;;5035711;28;20372;-63
2021/01/20 10:09:52;;;;;;;;;;;6.30;99.90;;;;;;5045472;28;19943;-61
2021/01/20 10:12:18;;;;;;;;;;;6.30;99.90;;;;;;5038167;28;19971;-64
2021/01/20 10:14:44;;;;;;;;;;;6.40;99.90;;;;;;5036560;28;19982;-62
2021/01/20 10:17:11;;;;;;;;;;;6.50;99.90;;;;;;5036067;28;19925;-62
2021/01/20 10:19:37;;;;;;;;;;;6.70;99.90;;;;;;5036224;28;20050;-62
2021/01/20 10:22:03;;;;;;;;;;;6.70;99.90;;;;;;5036179;28;19925;-62
2021/01/20 10:24:29;;;;;;;;;;;6.70;99.90;;;;;;5034937;28;19921;-61
2021/01/20 10:26:56;;;;;;;;;;;6.80;99.90;;;;;;5034706;28;19928;-62
2021/01/20 10:29:22;;;;;;;;;;;7.00;99.90;;;;;;5034819;28;19927;-64
2021/01/20 10:31:51;;;;;;;;;;;7.10;99.90;;;;;;5034847;28;19921;-61
2021/01/20 10:34:17;;;;;;;;;;;7.10;99.90;;;;;;5035137;28;19943;-62
2021/01/20 10:36:43;;;;;;;;;;;7.20;99.90;;;;;;5034960;28;19922;-61
2021/01/20 10:39:11;;;;;;;;;;;7.20;99.90;;;;;;5035070;28;19921;-62
2021/01/20 10:41:37;;;;;;;;;;;7.20;99.90;;;;;;5034854;28;20011;-62
2021/01/20 10:44:04;;;;;;;;;;;7.10;99.90;;;;;;5034203;28;20375;-62
2021/01/20 10:46:30;;;;;;;;;;;7.30;99.90;;;;;;5034492;28;20007;-62
2021/01/20 10:48:57;;;;;;;;;;;7.30;99.90;;;;;;5034263;28;20317;-61
2021/01/20 10:51:24;;;;;;;;;;;7.50;99.90;;;;;;5034510;28;19921;-62
2021/01/20 10:53:50;;;;;;;;;;;7.50;99.90;;;;;;5034514;28;19927;-63
2021/01/20 10:56:17;;;;;;;;;;;7.60;99.90;;;;;;5034157;28;19921;-63
2021/01/20 10:58:43;;;;;;;;;;;7.70;99.90;;;;;;5034204;28;19921;-63
2021/01/20 11:01:10;;;;;;;;;;;7.70;99.90;;;;;;5033833;28;20364;-62
2021/01/20 11:03:38;;;;;;;;;;;7.70;99.90;;;;;;5033811;28;19921;-61
2021/01/20 11:06:04;;;;;;;;;;;7.70;99.90;;;;;;5033960;28;19987;-62
2021/01/20 11:08:30;;;;;;;;;;;7.80;99.90;;;;;;5033996;28;20343;-63
2021/01/20 11:10:56;;;;;;;;;;;7.90;99.90;;;;;;5033626;28;20391;-62
2021/01/20 11:13:23;;;;;;;;;;;7.80;99.90;;;;;;5033859;28;19920;-62
2021/01/20 11:15:50;;;;;;;;;;;7.70;99.90;;;;;;5034014;28;19983;-63
2021/01/20 11:18:17;;;;;;;;;;;7.60;99.90;;;;;;5034032;28;19921;-61
2021/01/20 11:20:43;;;;;;;;;;;7.50;99.90;;;;;;5034252;28;19921;-63
2021/01/20 11:23:10;;;;;;;;;;;7.40;99.90;;;;;;5034553;28;19921;-63
2021/01/20 11:25:36;;;;;;;;;;;7.50;99.90;;;;;;5033794;28;20326;-62
2021/01/20 11:28:03;;;;;;;;;;;7.40;99.90;;;;;;5033826;28;19920;-63
2021/01/20 11:30:30;;;;;;;;;;;7.40;99.90;;;;;;5033559;28;20390;-63
2021/01/20 11:32:56;;;;;;;;;;;7.30;99.90;;;;;;5033921;28;20003;-64
2021/01/20 11:35:22;;;;;;;;;;;7.30;99.90;;;;;;5037892;28;19921;-62
2021/01/20 11:37:48;;;;;;;;;;;7.40;99.90;;;;;;5038640;28;19925;-62
2021/01/20 11:40:14;;;;;;;;;;;7.50;99.90;;;;;;5037431;28;19928;-63
2021/01/20 11:42:41;;;;;;;;;;;7.50;99.90;;;;;;5037511;28;20261;-64
2021/01/20 11:45:07;;;;;;;;;;;7.40;99.90;;;;;;5037753;28;19928;-61
2021/01/20 11:47:36;;;;;;;;;;;7.40;99.90;;;;;;5038443;28;20284;-62
2021/01/20 11:50:02;;;;;;;;;;;7.40;99.90;;;;;;5037681;28;19921;-61
2021/01/20 11:52:28;;;;;;;;;;;7.30;99.90;;;;;;5037496;28;19921;-62
2021/01/20 11:54:54;;;;;;;;;;;7.30;99.90;;;;;;5053948;22;19928;-63
2021/01/20 11:57:20;;;;;;;;;;;7.40;99.90;;;;;;5048401;28;19928;-64
2021/01/20 11:59:46;;;;;;;;;;;7.30;99.90;;;;;;5037702;28;19920;-62
2021/01/20 12:02:12;;;;;;;;;;;7.40;99.90;;;;;;5037416;28;19921;-62
2021/01/20 12:04:39;;;;;;;;;;;7.50;99.90;;;;;;5037597;28;19928;-63
2021/01/20 12:07:05;;;;;;;;;;;7.50;99.90;;;;;;5037609;28;19921;-63
2021/01/20 12:09:31;;;;;;;;;;;7.50;99.90;;;;;;5037529;28;19921;-63
2021/01/20 12:11:57;;;;;;;;;;;7.60;99.90;;;;;;5037611;28;19925;-63
2021/01/20 12:14:23;;;;;;;;;;;7.60;99.90;;;;;;5037104;28;19928;-63
2021/01/20 12:16:49;;;;;;;;;;;7.50;99.90;;;;;;5038196;28;19928;-64
2021/01/20 12:19:15;;;;;;;;;;;7.50;99.90;;;;;;5037446;28;19928;-63
2021/01/20 12:21:42;;;;;;;;;;;7.60;99.90;;;;;;5037354;28;19921;-63
2021/01/20 12:24:08;;;;;;;;;;;7.60;99.90;;;;;;5037190;28;19925;-62
2021/01/20 12:26:34;;;;;;;;;;;7.60;99.90;;;;;;5037195;28;19925;-63
2021/01/20 12:29:00;;;;;;;;;;;7.70;99.90;;;;;;5037323;28;19921;-63
2021/01/20 12:31:26;;;;;;;;;;;7.70;99.90;;;;;;5037169;28;19921;-63
2021/01/20 12:33:52;;;;;;;;;;;7.70;99.90;;;;;;5036966;28;19921;-63
2021/01/20 12:36:20;;;;;;;;;;;7.90;99.90;;;;;;5036718;28;20287;-62
2021/01/20 12:38:48;;;;;;;;;;;7.90;99.90;;;;;;5036721;28;19964;-63
2021/01/20 12:41:15;;;;;;;;;;;7.80;99.90;;;;;;5036615;28;19967;-63
2021/01/20 12:43:41;;;;;;;;;;;7.80;99.90;;;;;;5036931;28;19928;-63
2021/01/20 12:46:07;;;;;;;;;;;7.90;99.90;;;;;;5035450;28;19945;-63
2021/01/20 12:48:33;;;;;;;;;;;7.90;99.90;;;;;;5036912;28;19928;-64
2021/01/20 12:50:59;;;;;;;;;;;7.90;99.90;;;;;;5036675;28;19921;-63
2021/01/20 12:53:25;;;;;;;;;;;7.90;99.90;;;;;;5036648;28;19921;-63
2021/01/20 12:55:52;;;;;;;;;;;8.00;99.90;;;;;;5036682;28;19921;-63
2021/01/20 12:58:18;;;;;;;;;;;8.00;99.90;;;;;;5036374;28;19925;-63
2021/01/20 13:00:44;;;;;;;;;;;7.90;99.90;;;;;;5036462;28;19924;-63
2021/01/20 13:03:10;;;;;;;;;;;7.90;99.90;;;;;;5036321;28;19997;-63
2021/01/20 13:05:36;;;;;;;;;;;7.90;99.90;;;;;;5036606;28;19928;-63
2021/01/20 13:08:02;;;;;;;;;;;7.90;99.90;;;;;;5036405;28;19921;-63
2021/01/20 13:10:29;;;;;;;;;;;7.80;99.90;;;;;;5036576;28;19921;-63
2021/01/20 13:12:56;;;;;;;;;;;7.90;99.90;;;;;;5036310;28;19975;-63
2021/01/20 13:15:23;;;;;;;;;;;7.90;99.90;;;;;;5035924;28;20299;-63
2021/01/20 13:17:51;;;;;;;;;;;7.90;99.90;;;;;;5036120;28;19921;-63
2021/01/20 13:20:17;;;;;;;;;;;8.00;99.90;;;;;;5037109;28;19924;-63
2021/01/20 13:22:43;;;;;;;;;;;8.00;99.90;;;;;;5037373;28;20372;-62
2021/01/20 13:25:09;;;;;;;;;;;8.10;99.90;;;;;;5037334;28;19921;-63
2021/01/20 13:27:36;;;;;;;;;;;8.20;99.90;;;;;;5038369;28;19921;-64
2021/01/20 13:30:03;;;;;;;;;;;8.20;99.90;;;;;;5036982;28;19921;-65
2021/01/20 13:32:29;;;;;;;;;;;8.20;99.90;;;;;;5036264;28;19921;-64
2021/01/20 13:34:55;;;;;;;;;;;8.30;99.90;;;;;;5036297;28;19953;-62
2021/01/20 13:37:21;;;;;;;;;;;8.40;99.90;;;;;;5036142;28;19921;-63
2021/01/20 13:39:47;;;;;;;;;;;8.60;99.90;;;;;;5036475;28;19925;-63
2021/01/20 13:42:13;;;;;;;;;;;8.60;99.90;;;;;;5035731;28;19958;-63
2021/01/20 13:44:40;;;;;;;;;;;8.60;99.90;;;;;;5035519;28;19921;-62
2021/01/20 13:47:07;;;;;;;;;;;8.70;99.90;;;;;;5035793;28;20284;-63
2021/01/20 13:49:33;;;;;;;;;;;8.70;99.90;;;;;;5035814;28;19928;-64
2021/01/20 13:52:00;;;;;;;;;;;8.80;99.90;;;;;;5036134;28;19921;-63
2021/01/20 13:54:26;;;;;;;;;;;8.80;99.90;;;;;;5035359;28;20382;-64
2021/01/20 13:56:52;;;;;;;;;;;8.80;99.90;;;;;;5035389;28;20330;-63
2021/01/20 13:59:18;;;;;;;;;;;8.80;99.90;;;;;;5037471;28;20334;-63
2021/01/20 14:01:44;;;;;;;;;;;8.60;99.90;;;;;;5038171;28;19943;-63
2021/01/20 14:04:11;;;;;;;;;;;8.60;99.90;;;;;;5035791;28;19921;-64
2021/01/20 14:06:37;;;;;;;;;;;8.60;99.90;;;;;;5035903;28;19921;-64
2021/01/20 14:09:03;;;;;;;;;;;8.60;99.90;;;;;;5035404;28;20007;-63
2021/01/20 14:11:29;;;;;;;;;;;8.60;99.90;;;;;;5035283;28;19967;-64
2021/01/20 14:13:55;;;;;;;;;;;8.50;99.90;;;;;;5035183;28;19920;-63
2021/01/20 14:16:21;;;;;;;;;;;8.40;99.90;;;;;;5035545;28;19928;-64
2021/01/20 14:18:48;;;;;;;;;;;8.40;99.90;;;;;;5034941;28;19924;-65
2021/01/20 14:21:14;;;;;;;;;;;8.40;99.90;;;;;;5035177;28;20015;-65
2021/01/20 14:23:41;;;;;;;;;;;8.50;99.90;;;;;;5034910;28;19928;-63
2021/01/20 14:26:07;;;;;;;;;;;8.60;99.90;;;;;;5035273;28;19932;-64
2021/01/20 14:28:33;;;;;;;;;;;8.70;99.90;;;;;;5035757;28;19928;-64
2021/01/20 14:30:59;;;;;;;;;;;8.70;99.90;;;;;;5035411;28;20346;-63
2021/01/20 14:33:25;;;;;;;;;;;8.60;99.90;;;;;;5035358;28;19944;-63
2021/01/20 14:35:52;;;;;;;;;;;8.60;99.90;;;;;;5034313;28;21306;-64
2021/01/20 14:38:19;;;;;;;;;;;8.50;99.90;;;;;;5034409;28;19926;-64
2021/01/20 14:40:45;;;;;;;;;;;8.50;99.90;;;;;;5035007;28;19947;-63
2021/01/20 14:43:11;;;;;;;;;;;8.40;99.90;;;;;;5034531;28;20307;-63
2021/01/20 14:45:37;;;;;;;;;;;8.30;99.90;;;;;;5034392;28;19929;-64
2021/01/20 14:48:04;;;;;;;;;;;8.30;99.90;;;;;;5034647;28;19971;-63
2021/01/20 14:50:30;;;;;;;;;;;8.30;99.90;;;;;;5034354;28;19925;-63
2021/01/20 14:52:56;;;;;;;;;;;8.30;99.90;;;;;;5035098;28;19925;-65
2021/01/20 14:55:23;;;;;;;;;;;8.20;99.90;;;;;;5035149;28;19932;-65
2021/01/20 14:57:49;;;;;;;;;;;8.20;99.90;;;;;;5040185;28;19925;-65
2021/01/20 15:00:16;;;;;;;;;;;8.20;99.90;;;;;;5037248;28;19926;-65
2021/01/20 15:02:42;;;;;;;;;;;8.10;99.90;;;;;;5034548;28;19983;-64
2021/01/20 15:05:08;;;;;;;;;;;8.00;99.90;;;;;;5034492;28;19925;-62
2021/01/20 15:07:34;;;;;;;;;;;8.00;99.90;;;;;;5033762;28;20024;-63
2021/01/20 15:10:00;;;;;;;;;;;7.90;99.90;;;;;;5034156;28;19925;-63
2021/01/20 15:12:27;;;;;;;;;;;7.80;99.90;;;;;;5034154;28;19925;-63
2021/01/20 15:14:53;;;;;;;;;;;7.90;99.90;;;;;;5034049;28;19940;-63
2021/01/20 15:17:19;;;;;;;;;;;7.90;99.90;;;;;;5034453;28;19996;-64
2021/01/20 15:19:45;;;;;;;;;;;7.80;99.90;;;;;;5034378;28;19932;-64
2021/01/20 15:22:11;;;;;;;;;;;7.80;99.90;;;;;;5034402;28;19925;-64
2021/01/20 15:24:39;;;;;;;;;;;7.80;99.90;;;;;;5034236;28;20082;-64
2021/01/20 15:27:05;;;;;;;;;;;7.80;99.90;;;;;;5033797;28;19932;-64
2021/01/20 15:29:32;;;;;;;;;;;7.70;99.90;;;;;;5033709;28;20380;-63
2021/01/20 15:31:58;;;;;;;;;;;7.70;99.90;;;;;;5034243;28;19936;-64
2021/01/20 15:34:24;;;;;;;;;;;7.60;99.90;;;;;;5034262;28;19932;-63
2021/01/20 15:36:50;;;;;;;;;;;7.60;99.90;;;;;;5033942;28;19948;-65
2021/01/20 15:39:16;;;;;;;;;;;7.60;99.90;;;;;;5033583;28;19929;-63
2021/01/20 15:41:42;;;;;;;;;;;7.60;99.90;;;;;;5034307;28;19936;-63
2021/01/20 15:44:08;;;;;;;;;;;7.60;99.90;;;;;;5033826;28;19929;-63
2021/01/20 15:46:35;;;;;;;;;;;7.60;99.90;;;;;;5037276;28;19925;-63
2021/01/20 15:49:01;;;;;;;;;;;7.60;99.90;;;;;;5034605;28;19925;-63
2021/01/20 15:51:27;;;;;;;;;;;7.70;99.90;;;;;;5035121;28;19925;-63
2021/01/20 15:53:53;;;;;;;;;;;7.70;99.90;;;;;;5036574;28;19929;-64
2021/01/20 15:56:19;;;;;;;;;;;7.70;99.90;;;;;;5033823;28;19925;-63
2021/01/20 15:58:46;;;;;;;;;;;7.70;99.90;;;;;;5033991;28;19925;-64
2021/01/20 16:01:12;;;;;;;;;;;7.50;99.90;;;;;;5033825;28;19932;-64
2021/01/20 16:03:38;;;;;;;;;;;7.60;99.90;;;;;;5033560;28;19925;-63
2021/01/20 16:06:05;;;;;;;;;;;7.50;99.90;;;;;;5033787;28;19929;-63
2021/01/20 16:08:31;;;;;;;;;;;7.50;99.90;;;;;;5034157;28;19948;-64
2021/01/20 16:10:57;;;;;;;;;;;7.50;99.90;;;;;;5033938;28;19925;-63
2021/01/20 16:13:23;;;;;;;;;;;7.50;99.90;;;;;;5033655;28;19926;-63
2021/01/20 16:15:49;;;;;;;;;;;7.50;99.90;;;;;;5033652;28;20299;-64
2021/01/20 16:18:15;;;;;;;;;;;7.50;99.90;;;;;;5033639;28;19925;-63
2021/01/20 16:20:42;;;;;;;;;;;7.50;99.90;;;;;;5036302;28;19929;-64
2021/01/20 16:23:08;;;;;;;;;;;7.60;99.90;;;;;;5037204;28;19936;-65
2021/01/20 16:25:34;;;;;;;;;;;7.60;99.90;;;;;;5037688;28;19932;-64
2021/01/20 16:28:00;;;;;;;;;;;7.60;99.90;;;;;;5038679;28;19925;-64
2021/01/20 16:30:26;;;;;;;;;;;7.60;99.90;;;;;;5040839;28;19925;-64
2021/01/20 16:32:53;;;;;;;;;;;7.50;99.90;;;;;;5036386;28;20372;-64
2021/01/20 16:35:20;;;;;;;;;;;7.50;99.90;;;;;;5036983;28;19925;-64
2021/01/20 16:37:47;;;;;;;;;;;7.50;99.90;;;;;;5036663;28;20083;-65
2021/01/20 16:40:14;;;;;;;;;;;7.50;99.90;;;;;;5036801;28;19926;-62
2021/01/20 16:42:40;;;;;;;;;;;7.60;99.90;;;;;;5036813;28;19925;-62
2021/01/20 16:45:07;;;;;;;;;;;7.60;99.90;;;;;;5036837;28;19925;-65
2021/01/20 16:47:34;;;;;;;;;;;7.70;99.90;;;;;;5036529;28;19925;-64
2021/01/20 16:50:00;;;;;;;;;;;7.70;99.90;;;;;;5036584;28;19929;-65
2021/01/20 16:52:26;;;;;;;;;;;7.70;99.90;;;;;;5036710;28;19932;-64
2021/01/20 16:54:53;;;;;;;;;;;7.70;99.90;;;;;;5036681;28;19925;-64
2021/01/20 16:57:19;;;;;;;;;;;7.80;99.90;;;;;;5036543;28;19979;-63
2021/01/20 16:59:45;;;;;;;;;;;7.80;99.90;;;;;;5036542;28;19925;-64
2021/01/20 17:02:11;;;;;;;;;;;7.90;99.90;;;;;;5036846;28;19925;-63
2021/01/20 17:04:37;;;;;;;;;;;7.90;99.90;;;;;;5036417;28;19932;-63
2021/01/20 17:07:03;;;;;;;;;;;7.90;99.90;;;;;;5036178;28;19925;-64
2021/01/20 17:09:29;;;;;;;;;;;7.80;99.90;;;;;;5036387;28;19925;-63
2021/01/20 17:11:57;;;;;;;;;;;7.90;99.90;;;;;;5036131;28;19979;-63
2021/01/20 17:14:24;;;;;;;;;;;7.90;99.90;;;;;;5036298;28;19948;-64
2021/01/20 17:16:50;;;;;;;;;;;7.90;99.90;;;;;;5036157;28;19979;-64
2021/01/20 17:19:16;;;;;;;;;;;7.90;99.90;;;;;;5036250;28;19991;-62
2021/01/20 17:21:42;;;;;;;;;;;7.90;99.90;;;;;;5035624;28;20384;-64
2021/01/20 17:24:09;;;;;;;;;;;7.90;99.90;;;;;;5036045;28;19929;-63
2021/01/20 17:26:35;;;;;;;;;;;7.80;99.90;;;;;;5035625;28;19925;-63
2021/01/20 17:29:01;;;;;;;;;;;7.80;99.90;;;;;;5035947;28;19948;-63
2021/01/20 17:31:27;;;;;;;;;;;7.80;99.90;;;;;;5037166;28;19936;-63
2021/01/20 17:33:54;;;;;;;;;;;7.70;99.90;;;;;;5037809;28;19932;-64
2021/01/20 17:36:20;;;;;;;;;;;7.70;99.90;;;;;;5036471;28;19925;-63
2021/01/20 17:38:46;;;;;;;;;;;7.70;99.90;;;;;;5035718;28;19925;-64
2021/01/20 17:41:12;;;;;;;;;;;7.70;99.90;;;;;;5035878;28;19925;-63
2021/01/20 17:43:38;;;;;;;;;;;7.70;99.90;;;;;;5036067;28;19925;-63
2021/01/20 17:46:04;;;;;;;;;;;7.70;99.90;;;;;;5035952;28;19925;-63
2021/01/20 17:48:30;;;;;;;;;;;7.60;99.90;;;;;;5035839;28;19971;-63
2021/01/20 17:50:57;;;;;;;;;;;7.60;99.90;;;;;;5035850;28;19932;-63
2021/01/20 17:53:23;;;;;;;;;;;7.60;99.90;;;;;;5035421;28;20383;-63
2021/01/20 17:55:50;;;;;;;;;;;7.50;99.90;;;;;;5050237;22;20378;-64
2021/01/20 17:58:17;;;;;;;;;;;7.50;99.90;;;;;;5034573;28;20379;-63
2021/01/20 18:00:43;;;;;;;;;;;7.40;99.90;;;;;;5035190;28;19991;-63
2021/01/20 18:03:10;;;;;;;;;;;7.30;99.90;;;;;;5034282;28;20379;-63
2021/01/20 18:05:36;;;;;;;;;;;7.30;99.90;;;;;;5034646;28;19932;-63
2021/01/20 18:08:03;;;;;;;;;;;7.30;99.90;;;;;;5035622;28;19925;-63
2021/01/20 18:10:29;;;;;;;;;;;7.30;99.90;;;;;;5034548;28;19944;-63
2021/01/20 18:12:55;;;;;;;;;;;7.20;99.90;;;;;;5034744;28;19925;-63
2021/01/20 18:15:21;;;;;;;;;;;7.20;99.90;;;;;;5034578;28;19932;-62
2021/01/20 18:17:48;;;;;;;;;;;7.10;99.90;;;;;;5034369;28;19925;-63
2021/01/20 18:20:15;;;;;;;;;;;7.20;99.90;;;;;;5034719;28;19936;-63
2021/01/20 18:22:41;;;;;;;;;;;7.10;99.90;;;;;;5034546;28;19925;-63
2021/01/20 18:25:07;;;;;;;;;;;7.10;99.90;;;;;;5035062;28;19932;-62
2021/01/20 18:27:33;;;;;;;;;;;7.00;99.90;;;;;;5041365;28;19925;-64
2021/01/20 18:29:59;;;;;;;;;;;6.90;99.90;;;;;;5039514;28;19925;-63
2021/01/20 18:32:25;;;;;;;;;;;6.90;99.90;;;;;;5035039;28;19925;-63
2021/01/20 18:34:51;;;;;;;;;;;6.90;99.90;;;;;;5035081;28;19926;-64
2021/01/20 18:37:18;;;;;;;;;;;6.90;99.90;;;;;;5035163;28;19949;-64
2021/01/20 18:39:45;;;;;;;;;;;6.80;99.90;;;;;;5035085;28;19932;-62
2021/01/20 18:42:11;;;;;;;;;;;6.80;99.90;;;;;;5035107;28;19925;-63
2021/01/20 18:44:38;;;;;;;;;;;6.80;99.90;;;;;;5035040;28;19956;-62
2021/01/20 18:47:04;;;;;;;;;;;6.80;99.90;;;;;;5034458;28;20348;-63
2021/01/20 18:49:30;;;;;;;;;;;6.80;99.90;;;;;;5034877;28;19925;-64
2021/01/20 18:51:56;;;;;;;;;;;6.80;99.90;;;;;;5034661;28;19972;-63
2021/01/20 18:54:23;;;;;;;;;;;6.90;99.90;;;;;;5034102;28;20372;-62
2021/01/20 18:56:49;;;;;;;;;;;6.90;99.90;;;;;;5034595;28;20031;-64
2021/01/20 18:59:15;;;;;;;;;;;6.80;99.90;;;;;;5034715;28;19925;-64
2021/01/20 19:01:41;;;;;;;;;;;6.80;99.90;;;;;;5035180;28;20125;-65
2021/01/20 19:04:07;;;;;;;;;;;6.70;99.90;;;;;;5034994;28;19932;-64
2021/01/20 19:06:33;;;;;;;;;;;6.70;99.90;;;;;;5034939;28;20268;-65
2021/01/20 19:09:00;;;;;;;;;;;6.70;99.90;;;;;;5034689;28;19925;-62
2021/01/20 19:11:26;;;;;;;;;;;6.70;99.90;;;;;;5035520;28;20233;-62
2021/01/20 19:13:52;;;;;;;;;;;6.70;99.90;;;;;;5034439;28;19925;-63
2021/01/20 19:16:18;;;;;;;;;;;6.70;99.90;;;;;;5034739;28;19929;-64
2021/01/20 19:18:44;;;;;;;;;;;6.70;99.90;;;;;;5034434;28;19932;-68
2021/01/20 19:21:10;;;;;;;;;;;6.70;99.90;;;;;;5035153;28;19926;-63
2021/01/20 19:23:37;;;;;;;;;;;6.70;99.90;;;;;;5034491;28;19929;-63
2021/01/20 19:26:04;;;;;;;;;;;6.80;99.90;;;;;;5034543;28;19925;-64
2021/01/20 19:28:31;;;;;;;;;;;6.80;99.90;;;;;;5034107;28;20402;-64
2021/01/20 19:30:58;;;;;;;;;;;6.70;99.90;;;;;;5034349;28;19929;-64